createdAt,value
2018-09-19T00:01:06.638Z,23.40
2018-09-19T00:03:34.071Z,23.20
2018-09-19T00:06:01.566Z,23.40
2018-09-19T00:08:28.995Z,23.10
2018-09-19T00:10:56.495Z,22.50
2018-09-19T00:13:23.975Z,22.80
2018-09-19T00:15:51.446Z,23.10
2018-09-19T00:18:18.900Z,23.60
2018-09-19T00:20:46.332Z,23.60
2018-09-19T00:23:13.765Z,23.90
2018-09-19T00:25:41.610Z,24.10
2018-09-19T00:28:09.023Z,24.30
2018-09-19T00:30:36.510Z,24.00
2018-09-19T00:33:04.027Z,23.90
2018-09-19T00:35:31.498Z,24.00
2018-09-19T00:37:58.910Z,24.10
2018-09-19T00:40:26.338Z,24.20
2018-09-19T00:42:53.811Z,24.30
2018-09-19T00:45:21.306Z,23.90
2018-09-19T00:47:48.733Z,24.20
2018-09-19T00:50:16.182Z,24.00
2018-09-19T00:52:43.617Z,24.00
2018-09-19T00:55:11.053Z,24.30
2018-09-19T00:57:38.565Z,24.30
2018-09-19T01:00:06.052Z,24.10
2018-09-19T01:02:33.474Z,24.20
2018-09-19T01:05:00.926Z,24.20
2018-09-19T01:07:28.400Z,23.70
2018-09-19T01:09:55.842Z,23.80
2018-09-19T01:12:23.260Z,24.00
2018-09-19T01:14:50.716Z,24.00
2018-09-19T01:17:18.165Z,24.10
2018-09-19T01:19:45.615Z,23.70
2018-09-19T01:22:13.153Z,22.60
2018-09-19T01:24:40.697Z,21.80
2018-09-19T01:27:08.131Z,21.30
2018-09-19T01:29:35.557Z,21.20
2018-09-19T01:32:03.010Z,21.90
2018-09-19T01:34:30.442Z,21.80
2018-09-19T01:36:57.989Z,22.20
2018-09-19T01:39:25.417Z,22.10
2018-09-19T01:41:52.997Z,22.10
2018-09-19T01:44:20.426Z,22.30
2018-09-19T01:46:47.866Z,22.20
2018-09-19T01:49:15.547Z,21.60
2018-09-19T01:51:43.070Z,21.10
2018-09-19T01:54:10.604Z,21.30
2018-09-19T01:56:38.068Z,21.40
2018-09-19T01:59:05.558Z,21.40
2018-09-19T02:01:32.976Z,21.80
2018-09-19T02:04:00.486Z,22.40
2018-09-19T02:06:27.997Z,22.90
2018-09-19T02:08:55.407Z,23.20
2018-09-19T02:11:22.828Z,23.50
2018-09-19T02:13:50.305Z,23.60
2018-09-19T02:16:17.977Z,23.70
2018-09-19T02:18:45.490Z,23.80
2018-09-19T02:21:12.971Z,23.90
2018-09-19T02:23:40.575Z,24.00
2018-09-19T02:26:07.981Z,24.00
2018-09-19T02:28:35.556Z,24.10
2018-09-19T02:31:03.025Z,24.20
2018-09-19T02:33:30.692Z,24.20
2018-09-19T02:35:58.310Z,24.20
2018-09-19T02:38:25.845Z,23.90
2018-09-19T02:40:53.399Z,24.00
2018-09-19T02:43:20.881Z,24.10
2018-09-19T02:45:48.321Z,23.70
2018-09-19T02:48:15.847Z,22.70
2018-09-19T02:50:43.293Z,22.30
2018-09-19T02:53:10.775Z,22.20
2018-09-19T02:55:38.253Z,22.20
2018-09-19T02:58:05.859Z,22.30
2018-09-19T03:00:33.371Z,22.60
2018-09-19T03:03:00.818Z,23.10
2018-09-19T03:05:28.298Z,23.40
2018-09-19T03:07:55.712Z,23.40
2018-09-19T03:10:23.145Z,23.00
2018-09-19T03:12:50.667Z,23.30
2018-09-19T03:15:18.101Z,23.60
2018-09-19T03:17:45.775Z,23.80
2018-09-19T03:20:13.075Z,23.00
2018-09-19T03:22:40.597Z,22.00
2018-09-19T03:25:08.017Z,22.10
2018-09-19T03:27:35.548Z,22.60
2018-09-19T03:30:03.071Z,22.00
2018-09-19T03:32:30.646Z,21.70
2018-09-19T03:34:58.051Z,21.70
2018-09-19T03:37:25.515Z,21.50
2018-09-19T03:39:52.897Z,21.00
2018-09-19T03:42:20.435Z,20.50
2018-09-19T03:44:47.915Z,20.80
2018-09-19T03:47:15.475Z,21.00
2018-09-19T03:49:42.890Z,21.80
2018-09-19T03:52:10.404Z,22.40
2018-09-19T03:54:37.832Z,22.20
2018-09-19T03:57:05.380Z,21.70
2018-09-19T03:59:32.823Z,21.70
2018-09-19T04:02:00.247Z,21.90
2018-09-19T04:04:27.781Z,21.30
2018-09-19T04:06:55.349Z,20.80
2018-09-19T04:09:22.857Z,20.40
2018-09-19T04:11:50.279Z,20.40
2018-09-19T04:14:17.798Z,21.00
2018-09-19T04:16:45.265Z,21.90
2018-09-19T04:19:12.739Z,22.60
2018-09-19T04:21:44.129Z,22.90
2018-09-19T04:24:11.662Z,23.10
2018-09-19T04:26:39.189Z,23.10
2018-09-19T04:29:06.856Z,23.30
2018-09-19T04:31:34.290Z,23.40
2018-09-19T04:34:01.718Z,23.20
2018-09-19T04:36:29.185Z,22.40
2018-09-19T04:38:56.601Z,21.80
2018-09-19T04:41:24.082Z,20.90
2018-09-19T04:43:51.487Z,20.50
2018-09-19T04:46:19.020Z,20.50
2018-09-19T04:48:46.483Z,20.90
2018-09-19T04:51:13.902Z,20.70
2018-09-19T04:53:41.326Z,20.80
2018-09-19T04:56:08.857Z,20.90
2018-09-19T04:58:36.450Z,20.60
2018-09-19T05:01:03.910Z,21.00
2018-09-19T05:03:31.325Z,21.70
2018-09-19T05:05:58.776Z,22.50
2018-09-19T05:08:26.325Z,22.70
2018-09-19T05:10:53.800Z,21.60
2018-09-19T05:13:21.247Z,21.10
2018-09-19T05:15:48.751Z,21.80
2018-09-19T05:18:16.254Z,22.40
2018-09-19T05:20:43.738Z,22.90
2018-09-19T05:23:11.220Z,23.30
2018-09-19T05:25:38.697Z,23.50
2018-09-19T05:28:06.294Z,23.60
2018-09-19T05:30:33.857Z,23.60
2018-09-19T05:33:01.288Z,23.50
2018-09-19T05:35:28.794Z,23.50
2018-09-19T05:37:56.217Z,23.30
2018-09-19T05:40:23.798Z,23.10
2018-09-19T05:42:51.326Z,23.30
2018-09-19T05:45:18.809Z,23.50
2018-09-19T05:47:46.340Z,23.60
2018-09-19T05:50:13.845Z,23.70
2018-09-19T05:52:41.237Z,23.80
2018-09-19T05:55:08.764Z,23.90
2018-09-19T05:57:36.320Z,23.90
2018-09-19T06:00:04.349Z,23.90
2018-09-19T06:02:31.908Z,23.90
2018-09-19T06:04:59.704Z,23.90
2018-09-19T06:07:27.140Z,23.90
2018-09-19T06:09:54.560Z,23.90
2018-09-19T06:12:21.958Z,23.90
2018-09-19T06:14:49.548Z,23.90
2018-09-19T06:17:17.036Z,24.00
2018-09-19T06:19:44.486Z,24.00
2018-09-19T06:22:11.881Z,24.00
2018-09-19T06:24:39.509Z,24.00
2018-09-19T06:27:06.999Z,24.10
2018-09-19T06:29:34.422Z,24.10
2018-09-19T06:32:01.847Z,24.10
2018-09-19T06:34:29.305Z,24.10
2018-09-19T06:36:56.967Z,24.10
2018-09-19T06:39:24.461Z,24.10
2018-09-19T06:41:51.971Z,24.30
2018-09-19T06:44:19.394Z,24.40
2018-09-19T06:46:46.909Z,24.00
2018-09-19T06:49:14.333Z,24.00
2018-09-19T06:51:41.765Z,24.10
2018-09-19T06:54:09.173Z,24.00
2018-09-19T06:56:36.761Z,24.30
2018-09-19T06:59:04.230Z,24.50
2018-09-19T07:01:31.790Z,23.80
2018-09-19T07:03:59.234Z,23.30
2018-09-19T07:06:26.738Z,23.40
2018-09-19T07:08:54.166Z,24.10
2018-09-19T07:11:21.865Z,24.60
2018-09-19T07:13:49.317Z,24.90
2018-09-19T07:16:16.741Z,25.20
2018-09-19T07:18:44.258Z,24.70
2018-09-19T07:21:11.701Z,25.20
2018-09-19T07:23:39.186Z,25.70
2018-09-19T07:26:06.570Z,26.10
2018-09-19T07:28:34.137Z,26.40
2018-09-19T07:31:01.733Z,26.60
2018-09-19T07:33:29.106Z,26.60
2018-09-19T07:35:56.543Z,26.70
2018-09-19T07:38:23.988Z,26.00
2018-09-19T07:40:51.406Z,26.40
2018-09-19T07:43:18.905Z,26.50
2018-09-19T07:45:46.351Z,26.40
2018-09-19T07:48:13.934Z,26.90
2018-09-19T07:50:41.457Z,27.30
2018-09-19T07:53:08.881Z,27.60
2018-09-19T07:55:36.315Z,27.80
2018-09-19T07:58:03.803Z,27.90
2018-09-19T08:00:31.322Z,28.10
2018-09-19T08:02:58.714Z,28.30
2018-09-19T08:05:26.443Z,28.40
2018-09-19T08:07:53.914Z,28.70
2018-09-19T08:10:21.782Z,29.10
2018-09-19T08:12:49.623Z,29.10
2018-09-19T08:15:17.145Z,29.40
2018-09-19T08:17:44.554Z,29.70
2018-09-19T08:20:11.996Z,29.80
2018-09-19T08:22:39.553Z,30.10
2018-09-19T08:25:07.011Z,30.30
2018-09-19T08:27:34.577Z,30.50
2018-09-19T08:30:01.981Z,30.80
2018-09-19T08:32:29.449Z,31.20
2018-09-19T08:34:56.954Z,31.30
2018-09-19T08:37:24.417Z,31.40
2018-09-19T08:39:51.930Z,31.70
2018-09-19T08:42:19.397Z,32.30
2018-09-19T08:44:46.902Z,32.50
2018-09-19T08:47:14.341Z,32.70
2018-09-19T08:49:41.818Z,33.30
2018-09-19T08:52:09.320Z,33.60
2018-09-19T08:54:36.807Z,33.20
2018-09-19T08:57:04.312Z,32.80
2018-09-19T08:59:31.738Z,32.80
2018-09-19T09:01:59.234Z,33.40
2018-09-19T09:04:26.806Z,33.10
2018-09-19T09:06:54.469Z,32.90
2018-09-19T09:09:21.962Z,32.60
2018-09-19T09:11:49.404Z,32.70
2018-09-19T09:14:16.835Z,32.80
2018-09-19T09:16:44.299Z,32.80
2018-09-19T09:19:11.706Z,33.10
2018-09-19T09:21:39.137Z,33.50
2018-09-19T09:24:06.563Z,34.40
2018-09-19T09:26:34.019Z,34.10
2018-09-19T09:29:01.441Z,34.70
2018-09-19T09:31:28.879Z,34.10
2018-09-19T09:33:56.325Z,32.70
2018-09-19T09:36:23.826Z,30.90
2018-09-19T09:38:51.248Z,29.80
2018-09-19T09:41:18.689Z,29.50
2018-09-19T09:43:46.112Z,28.90
2018-09-19T09:46:13.645Z,28.20
2018-09-19T09:48:41.110Z,27.60
2018-09-19T09:51:08.579Z,27.40
2018-09-19T09:53:35.995Z,28.90
2018-09-19T09:56:03.413Z,29.20
2018-09-19T09:58:30.891Z,28.70
2018-09-19T10:00:58.370Z,28.30
2018-09-19T10:03:25.799Z,28.00
2018-09-19T10:05:53.285Z,27.80
2018-09-19T10:08:20.716Z,27.80
2018-09-19T10:10:48.371Z,27.30
2018-09-19T10:13:15.801Z,26.90
2018-09-19T10:15:43.239Z,26.90
2018-09-19T10:18:10.721Z,26.80
2018-09-19T10:20:38.178Z,26.70
2018-09-19T10:23:05.691Z,27.30
2018-09-19T10:25:33.169Z,28.90
2018-09-19T10:28:00.597Z,30.60
2018-09-19T10:30:28.177Z,30.20
2018-09-19T10:32:55.606Z,28.60
2018-09-19T10:35:23.127Z,28.10
2018-09-19T10:37:50.541Z,29.00
2018-09-19T10:40:18.017Z,30.60
2018-09-19T10:42:45.497Z,32.70
2018-09-19T10:45:12.955Z,32.90
2018-09-19T10:47:40.406Z,33.10
2018-09-19T10:50:07.878Z,35.20
2018-09-19T10:52:35.391Z,36.10
2018-09-19T10:55:02.861Z,36.90
2018-09-19T10:57:30.386Z,36.70
2018-09-19T10:59:58.058Z,37.30
2018-09-19T11:02:25.547Z,38.40
2018-09-19T11:04:53.046Z,37.00
2018-09-19T11:07:20.459Z,38.30
2018-09-19T11:09:47.905Z,39.00
2018-09-19T11:12:15.369Z,39.60
2018-09-19T11:14:42.799Z,38.80
2018-09-19T11:17:10.288Z,39.50
2018-09-19T11:19:37.658Z,39.90
2018-09-19T11:22:05.128Z,39.60
2018-09-19T11:24:32.521Z,38.70
2018-09-19T11:26:59.966Z,39.60
2018-09-19T11:29:27.453Z,40.90
2018-09-19T11:31:54.895Z,42.20
2018-09-19T11:34:22.410Z,41.90
2018-09-19T11:36:50.184Z,42.20
2018-09-19T11:39:17.662Z,43.20
2018-09-19T11:41:45.170Z,43.40
2018-09-19T11:44:12.669Z,41.40
2018-09-19T11:46:40.094Z,39.40
2018-09-19T11:49:07.758Z,36.40
2018-09-19T11:51:35.273Z,34.30
2018-09-19T11:54:02.717Z,33.00
2018-09-19T11:56:30.173Z,32.20
2018-09-19T11:58:57.765Z,31.90
2018-09-19T12:01:25.297Z,32.60
2018-09-19T12:03:52.837Z,34.30
2018-09-19T12:06:20.287Z,33.90
2018-09-19T12:08:47.745Z,33.10
2018-09-19T12:11:15.182Z,32.40
2018-09-19T12:13:42.653Z,31.50
2018-09-19T12:16:10.127Z,31.30
2018-09-19T12:18:37.663Z,31.20
2018-09-19T12:21:05.181Z,31.30
2018-09-19T12:23:32.899Z,31.30
2018-09-19T12:26:00.381Z,31.30
2018-09-19T12:28:27.829Z,30.90
2018-09-19T12:30:55.312Z,30.60
2018-09-19T12:33:22.775Z,31.30
2018-09-19T12:35:50.210Z,31.50
2018-09-19T12:38:17.738Z,30.80
2018-09-19T12:40:45.245Z,30.40
2018-09-19T12:43:12.753Z,30.40
2018-09-19T12:45:40.330Z,30.20
2018-09-19T12:48:07.721Z,30.40
2018-09-19T12:50:35.159Z,30.80
2018-09-19T12:53:02.614Z,30.70
2018-09-19T12:55:30.244Z,30.80
2018-09-19T12:57:57.636Z,30.50
2018-09-19T13:00:25.246Z,30.60
2018-09-19T13:02:52.802Z,30.90
2018-09-19T13:05:20.277Z,31.60
2018-09-19T13:07:47.774Z,31.80
2018-09-19T13:10:15.313Z,31.00
2018-09-19T13:12:42.871Z,30.90
2018-09-19T13:15:10.349Z,30.60
2018-09-19T13:17:37.793Z,30.70
2018-09-19T13:20:05.421Z,30.30
2018-09-19T13:22:32.959Z,30.10
2018-09-19T13:25:00.439Z,30.30
2018-09-19T13:27:27.930Z,30.20
2018-09-19T13:29:55.337Z,30.00
2018-09-19T13:32:22.817Z,29.20
2018-09-19T13:34:50.346Z,30.40
2018-09-19T13:37:17.829Z,33.10
2018-09-19T13:39:45.364Z,33.90
2018-09-19T13:42:12.814Z,34.30
2018-09-19T13:44:40.272Z,35.50
2018-09-19T13:47:07.760Z,36.70
2018-09-19T13:49:41.833Z,37.10
2018-09-19T13:52:09.311Z,36.80
2018-09-19T13:54:36.848Z,36.10
2018-09-19T13:57:04.399Z,36.20
2018-09-19T13:59:31.915Z,36.00
2018-09-19T14:01:59.453Z,36.10
2018-09-19T14:04:27.081Z,36.50
2018-09-19T14:06:54.616Z,37.00
2018-09-19T14:09:22.151Z,37.80
2018-09-19T14:11:49.594Z,38.60
2018-09-19T14:14:17.065Z,37.90
2018-09-19T14:16:44.586Z,36.60
2018-09-19T14:19:13.383Z,35.30
2018-09-19T14:21:40.912Z,34.50
2018-09-19T14:24:08.369Z,35.00
2018-09-19T14:26:35.842Z,35.30
2018-09-19T14:29:03.354Z,35.20
2018-09-19T14:31:30.786Z,33.40
2018-09-19T14:33:58.301Z,31.70
2018-09-19T14:36:25.871Z,32.10
2018-09-19T14:38:53.370Z,33.20
2018-09-19T14:41:21.018Z,34.30
2018-09-19T14:43:48.591Z,35.00
2018-09-19T14:46:16.110Z,35.40
2018-09-19T14:48:43.650Z,35.50
2018-09-19T14:51:11.149Z,35.10
2018-09-19T14:53:38.566Z,34.90
2018-09-19T14:56:06.218Z,33.90
2018-09-19T14:58:33.649Z,33.50
2018-09-19T15:01:01.092Z,33.70
2018-09-19T15:03:28.602Z,34.00
2018-09-19T15:05:56.129Z,33.20
2018-09-19T15:08:23.567Z,31.70
2018-09-19T15:10:51.005Z,30.60
2018-09-19T15:13:18.468Z,29.80
2018-09-19T15:15:45.919Z,29.10
2018-09-19T15:18:13.443Z,28.70
2018-09-19T15:20:40.902Z,28.60
2018-09-19T15:23:08.386Z,28.30
2018-09-19T15:25:35.901Z,28.10
2018-09-19T15:28:03.643Z,28.00
2018-09-19T15:30:31.093Z,27.90
2018-09-19T15:32:58.569Z,27.90
2018-09-19T15:35:26.041Z,28.50
2018-09-19T15:37:53.586Z,29.00
2018-09-19T15:40:21.124Z,29.40
2018-09-19T15:42:48.615Z,29.70
2018-09-19T15:45:16.065Z,29.70
2018-09-19T15:47:43.602Z,29.60
2018-09-19T15:50:11.192Z,29.60
2018-09-19T15:52:38.650Z,29.20
2018-09-19T15:55:06.374Z,28.70
2018-09-19T15:57:33.892Z,28.40
2018-09-19T16:00:01.431Z,28.30
2018-09-19T16:02:28.905Z,28.30
2018-09-19T16:04:56.389Z,28.30
2018-09-19T16:07:23.928Z,28.60
2018-09-19T16:09:51.415Z,28.80
2018-09-19T16:12:18.889Z,28.90
2018-09-19T16:14:46.338Z,29.00
2018-09-19T16:17:13.889Z,29.20
2018-09-19T16:19:41.325Z,29.20
2018-09-19T16:22:08.805Z,29.10
2018-09-19T16:24:36.316Z,29.00
2018-09-19T16:27:03.849Z,29.00
2018-09-19T16:29:31.416Z,29.10
2018-09-19T16:31:58.987Z,29.10
2018-09-19T16:34:26.405Z,28.90
2018-09-19T16:36:53.863Z,28.80
2018-09-19T16:39:21.413Z,28.80
2018-09-19T16:41:48.909Z,28.70
2018-09-19T16:44:16.627Z,28.70
2018-09-19T16:46:44.106Z,28.60
2018-09-19T16:49:11.587Z,28.50
2018-09-19T16:51:39.062Z,28.40
2018-09-19T16:54:06.604Z,28.20
2018-09-19T16:56:34.105Z,28.10
2018-09-19T16:59:01.587Z,28.00
2018-09-19T17:01:29.336Z,27.90
2018-09-19T17:03:57.160Z,27.90
2018-09-19T17:06:24.651Z,27.80
2018-09-19T17:08:52.149Z,27.80
2018-09-19T17:11:19.657Z,27.70
2018-09-19T17:13:47.275Z,27.60
2018-09-19T17:16:15.206Z,27.50
2018-09-19T17:18:42.662Z,27.40
2018-09-19T17:21:10.198Z,27.30
2018-09-19T17:23:37.659Z,27.30
2018-09-19T17:26:05.207Z,27.30
2018-09-19T17:28:32.962Z,27.30
2018-09-19T17:31:00.470Z,27.30
2018-09-19T17:33:27.915Z,27.30
2018-09-19T17:35:55.405Z,27.20
2018-09-19T17:38:22.946Z,27.10
2018-09-19T17:40:50.443Z,27.10
2018-09-19T17:43:17.900Z,27.10
2018-09-19T17:45:45.415Z,27.10
2018-09-19T17:48:12.941Z,27.10
2018-09-19T17:50:40.445Z,26.90
2018-09-19T17:53:07.995Z,26.50
2018-09-19T17:55:35.477Z,26.50
2018-09-19T17:58:03.009Z,26.70
2018-09-19T18:00:30.513Z,26.80
2018-09-19T18:02:58.036Z,26.80
2018-09-19T18:05:25.493Z,26.80
2018-09-19T18:07:53.005Z,26.70
2018-09-19T18:10:20.461Z,26.70
2018-09-19T18:12:47.955Z,26.60
2018-09-19T18:15:15.413Z,26.60
2018-09-19T18:17:42.986Z,26.60
2018-09-19T18:20:10.488Z,26.50
2018-09-19T18:22:38.012Z,26.50
2018-09-19T18:25:05.563Z,26.50
2018-09-19T18:27:33.158Z,26.40
2018-09-19T18:30:00.762Z,26.40
2018-09-19T18:32:28.214Z,26.40
2018-09-19T18:34:55.935Z,26.40
2018-09-19T18:37:23.441Z,26.30
2018-09-19T18:39:51.107Z,26.00
2018-09-19T18:42:18.609Z,25.80
2018-09-19T18:44:46.086Z,25.80
2018-09-19T18:47:13.548Z,25.70
2018-09-19T18:49:41.037Z,25.40
2018-09-19T18:52:08.498Z,25.40
2018-09-19T18:54:36.053Z,25.30
2018-09-19T18:57:03.582Z,25.70
2018-09-19T18:59:31.088Z,26.00
2018-09-19T19:01:58.631Z,26.20
2018-09-19T19:04:26.117Z,26.30
2018-09-19T19:06:53.625Z,26.40
2018-09-19T19:09:21.104Z,26.50
2018-09-19T19:11:48.613Z,26.50
2018-09-19T19:14:16.079Z,26.40
2018-09-19T19:16:43.565Z,26.50
2018-09-19T19:19:11.056Z,26.50
2018-09-19T19:21:38.563Z,26.50
2018-09-19T19:24:06.146Z,26.60
2018-09-19T19:26:33.670Z,26.50
2018-09-19T19:29:01.186Z,26.40
2018-09-19T19:31:28.738Z,26.40
2018-09-19T19:36:48.522Z,26.50
2018-09-19T19:39:29.164Z,26.50
2018-09-19T19:41:56.651Z,26.50
2018-09-19T19:44:47.258Z,26.50
2018-09-19T19:47:33.550Z,26.40
2018-09-19T19:50:01.014Z,26.40
2018-09-19T19:52:28.520Z,26.40
2018-09-19T19:54:55.998Z,26.40
2018-09-19T19:57:23.489Z,26.40
2018-09-19T19:59:50.990Z,26.40
2018-09-19T20:02:18.674Z,26.00
2018-09-19T20:04:48.128Z,25.50
2018-09-19T20:10:09.534Z,25.80
2018-09-19T20:15:02.457Z,25.90
2018-09-19T20:17:29.971Z,26.00
2018-09-19T20:19:57.535Z,26.10
2018-09-19T20:22:25.003Z,26.20
2018-09-19T20:24:53.379Z,26.20
2018-09-19T20:30:01.227Z,26.20
2018-09-19T20:32:28.660Z,26.10
2018-09-19T20:34:56.139Z,26.10
2018-09-19T20:37:23.597Z,25.90
2018-09-19T20:39:51.080Z,25.90
2018-09-19T20:42:18.598Z,25.90
2018-09-19T20:44:46.326Z,25.90
2018-09-19T20:47:13.786Z,26.00
2018-09-19T20:49:41.211Z,25.90
2018-09-19T20:52:08.657Z,26.00
2018-09-19T20:54:36.719Z,26.00
2018-09-19T20:57:04.145Z,25.80
2018-09-19T20:59:31.602Z,25.90
2018-09-19T21:01:59.059Z,25.60
2018-09-19T21:04:26.522Z,25.70
2018-09-19T21:06:54.096Z,25.40
2018-09-19T21:09:21.561Z,25.60
2018-09-19T21:11:49.013Z,25.70
2018-09-19T21:14:16.465Z,25.80
2018-09-19T21:16:44.011Z,25.90
2018-09-19T21:19:11.478Z,25.90
2018-09-19T21:21:39.010Z,26.00
2018-09-19T21:24:06.510Z,26.00
2018-09-19T21:26:33.973Z,26.00
2018-09-19T21:29:01.447Z,26.00
2018-09-19T21:31:28.950Z,25.80
2018-09-19T21:33:56.402Z,25.80
2018-09-19T21:36:23.859Z,25.90
2018-09-19T21:38:51.343Z,25.90
2018-09-19T21:41:18.849Z,25.90
2018-09-19T21:43:46.309Z,25.90
2018-09-19T21:46:13.783Z,25.90
2018-09-19T21:48:41.321Z,25.90
2018-09-19T21:51:08.694Z,25.90
2018-09-19T21:53:36.214Z,25.90
2018-09-19T21:56:03.756Z,25.90
2018-09-19T21:58:31.237Z,25.90
2018-09-19T22:01:04.314Z,25.70
2018-09-19T22:03:31.818Z,25.50
2018-09-19T22:05:59.314Z,25.60
2018-09-19T22:08:26.806Z,25.50
2018-09-19T22:10:54.231Z,25.00
2018-09-19T22:13:21.693Z,25.20
2018-09-19T22:15:49.179Z,25.40
2018-09-19T22:18:16.662Z,25.50
2018-09-19T22:20:44.119Z,25.70
2018-09-19T22:23:11.603Z,25.60
2018-09-19T22:25:39.058Z,25.20
2018-09-19T22:28:06.545Z,25.20
2018-09-19T22:30:34.081Z,25.50
2018-09-19T22:33:01.578Z,25.20
2018-09-19T22:35:28.998Z,24.40
2018-09-19T22:37:56.473Z,24.10
2018-09-19T22:40:23.946Z,24.70
2018-09-19T22:42:51.400Z,25.10
2018-09-19T22:45:18.944Z,25.30
2018-09-19T22:47:46.521Z,25.40
2018-09-19T22:50:14.114Z,25.40
2018-09-19T22:52:41.552Z,25.00
2018-09-19T22:55:08.998Z,24.20
2018-09-19T22:57:36.454Z,24.20
2018-09-19T23:00:04.028Z,24.70
2018-09-19T23:02:31.473Z,25.00
2018-09-19T23:04:58.928Z,24.20
2018-09-19T23:07:26.433Z,24.60
2018-09-19T23:09:53.854Z,24.90
2018-09-19T23:12:21.321Z,24.40
2018-09-19T23:14:48.763Z,24.50
2018-09-19T23:17:16.221Z,24.60
2018-09-19T23:19:43.678Z,24.80
2018-09-19T23:22:11.090Z,24.60
2018-09-19T23:24:38.552Z,24.30
2018-09-19T23:27:06.019Z,24.40
2018-09-19T23:29:33.450Z,24.10
2018-09-19T23:32:00.951Z,24.30
2018-09-19T23:34:28.392Z,24.60
2018-09-19T23:36:55.842Z,24.40
2018-09-19T23:39:23.314Z,24.40
2018-09-19T23:41:50.770Z,24.20
2018-09-19T23:44:18.184Z,23.80
2018-09-19T23:46:45.652Z,24.10
2018-09-19T23:49:13.109Z,24.30
2018-09-19T23:51:40.553Z,24.60
2018-09-19T23:54:08.000Z,23.90
2018-09-19T23:56:35.422Z,24.20
2018-09-19T23:59:02.921Z,24.00
